Thunderstorms From: 15-12-2017 06:00 Until: 16-12-2017 06:00 warning for: Thunderstorms Level: Yellow info button

Although rather usual in this region, locally or potentially dangerous phenomena are expected. (such as local winds, summer thunderstorms, rising streams or high waves) Be aware and pay attention to the latest weather updates, especially if you carry out activities exposed to weather or close to a stream or shoreline. 


Meteo18 Weather Cam more information Meteo18 Weather Cam


warning for Thunderstorms more information blitzortung!


Rain radar more information rain snow radar


Visit our other weather sites:

Template documentation
and downloads

And another site



Weather Underground History page Text

Daily Summary for September 11, 2016 Units:  Metric    English   Both
« Previous Day
Next Day »
Daily Weekly Monthly Yearly Custom
  High: Low: Average:
Temperature: 28.7 °C 14.2 °C 20.9 °C
Dew Point: 15.3 °C 9.7 °C 12.4 °C
Humidity: 79 % 37 % 60 %
Wind Speed: 14.5 km/h 0.0 km/h 1.4 km/h
Wind Gust: 17.7 km/h - -
Wind:- - SSW
Pressure: 1018.5 hPa 1015.5 hPa -
Precipitation: 0.0 mm    
Historical Graphs
 
 
Tabular Data for September 11, 2016
Time Temperature Dew Point Pressure Wind Wind Speed Wind Gust Humidity Rainfall Rate (Hourly)
00:02 17.7 °C 10.1 °C 1017.2 hPa Calm     61 % 0.0 mm
00:07 17.7 °C 10.1 °C 1017.2 hPa Calm     61 % 0.0 mm
00:12 17.7 °C 10.1 °C 1017.2 hPa Calm     61 % 0.0 mm
00:17 17.6 °C 10.2 °C 1017.2 hPa Calm     62 % 0.0 mm
00:22 17.4 °C 10.3 °C 1017.2 hPa Calm     63 % 0.0 mm
00:27 17.2 °C 10.1 °C 1017.2 hPa Calm     63 % 0.0 mm
00:32 17.1 °C 10.0 °C 1017.2 hPa Calm     63 % 0.0 mm
00:42 16.9 °C 10.0 °C 1017.2 hPa Calm     64 % 0.0 mm
00:47 17.0 °C 10.1 °C 1017.2 hPa Calm     64 % 0.0 mm
00:52 16.9 °C 10.3 °C 1017.2 hPa Calm     65 % 0.0 mm
01:02 16.7 °C 10.1 °C 1017.2 hPa Calm     65 % 0.0 mm
01:07 16.7 °C 10.1 °C 1017.2 hPa Calm     65 % 0.0 mm
01:12 16.6 °C 10.2 °C 1017.2 hPa Calm     66 % 0.0 mm
01:17 16.3 °C 9.7 °C 1017.2 hPa Calm     65 % 0.0 mm
01:22 16.2 °C 9.8 °C 1017.2 hPa Calm     66 % 0.0 mm
01:27 16.2 °C 10.1 °C 1017.2 hPa Calm     67 % 0.0 mm
01:32 16.2 °C 10.3 °C 1017.2 hPa Calm     68 % 0.0 mm
01:37 16.2 °C 10.3 °C 1017.2 hPa Calm     68 % 0.0 mm
01:42 16.1 °C 10.2 °C 1017.5 hPa Calm     68 % 0.0 mm
01:47 16.1 °C 10.2 °C 1017.2 hPa Calm     68 % 0.0 mm
01:52 15.9 °C 10.0 °C 1017.5 hPa Calm     68 % 0.0 mm
01:57 15.9 °C 10.2 °C 1017.5 hPa Calm     69 % 0.0 mm
02:02 16.0 °C 10.3 °C 1017.5 hPa Calm     69 % 0.0 mm
02:07 16.1 °C 10.6 °C 1017.5 hPa Calm     70 % 0.0 mm
02:12 16.1 °C 10.4 °C 1017.2 hPa Calm     69 % 0.0 mm
02:17 16.0 °C 10.5 °C 1017.2 hPa Calm     70 % 0.0 mm
02:22 15.9 °C 10.2 °C 1017.2 hPa Calm     69 % 0.0 mm
02:27 15.8 °C 10.1 °C 1017.2 hPa Calm     69 % 0.0 mm
02:32 15.7 °C 10.0 °C 1017.5 hPa Calm     69 % 0.0 mm
02:37 15.7 °C 10.2 °C 1017.5 hPa Calm     70 % 0.0 mm
02:42 15.7 °C 10.5 °C 1017.5 hPa Calm     71 % 0.0 mm
02:47 15.6 °C 10.4 °C 1017.5 hPa Calm     71 % 0.0 mm
02:52 15.6 °C 10.4 °C 1017.2 hPa Calm     71 % 0.0 mm
02:57 15.6 °C 10.6 °C 1017.5 hPa Calm     72 % 0.0 mm
03:02 15.6 °C 10.6 °C 1017.5 hPa Calm     72 % 0.0 mm
03:07 15.7 °C 10.7 °C 1017.5 hPa Calm     72 % 0.0 mm
03:12 15.9 °C 10.4 °C 1017.5 hPa Calm     70 % 0.0 mm
03:17 15.9 °C 10.4 °C 1017.5 hPa Calm     70 % 0.0 mm
03:22 16.0 °C 10.7 °C 1017.5 hPa Calm     71 % 0.0 mm
03:27 16.0 °C 10.7 °C 1017.5 hPa Calm     71 % 0.0 mm
03:32 16.0 °C 10.5 °C 1017.5 hPa Calm     70 % 0.0 mm
03:37 16.0 °C 10.7 °C 1017.5 hPa Calm     71 % 0.0 mm
03:42 15.9 °C 10.6 °C 1017.5 hPa Calm     71 % 0.0 mm
03:47 16.0 °C 10.7 °C 1017.2 hPa Calm     71 % 0.0 mm
03:52 16.1 °C 10.8 °C 1017.2 hPa Calm     71 % 0.0 mm
03:57 16.0 °C 10.7 °C 1017.5 hPa Calm     71 % 0.0 mm
04:02 15.9 °C 10.6 °C 1017.2 hPa Calm     71 % 0.0 mm
04:07 15.9 °C 10.6 °C 1017.2 hPa Calm     71 % 0.0 mm
04:12 16.0 °C 10.7 °C 1017.2 hPa Calm     71 % 0.0 mm
04:17 16.0 °C 10.7 °C 1017.2 hPa Calm     71 % 0.0 mm
04:22 15.9 °C 10.6 °C 1017.2 hPa Calm     71 % 0.0 mm
04:27 15.8 °C 10.6 °C 1017.2 hPa Calm     71 % 0.0 mm
04:32 15.8 °C 10.8 °C 1017.2 hPa Calm     72 % 0.0 mm
04:37 15.8 °C 10.8 °C 1017.2 hPa Calm     72 % 0.0 mm
04:42 15.8 °C 11.0 °C 1017.2 hPa Calm     73 % 0.0 mm
04:47 15.8 °C 10.8 °C 1017.2 hPa Calm     72 % 0.0 mm
04:52 15.7 °C 10.9 °C 1017.2 hPa Calm     73 % 0.0 mm
04:57 15.8 °C 10.6 °C 1017.2 hPa Calm     71 % 0.0 mm
05:02 15.9 °C 10.6 °C 1017.2 hPa Calm     71 % 0.0 mm
05:12 16.1 °C 11.1 °C 1017.2 hPa Calm     72 % 0.0 mm
05:17 15.9 °C 10.9 °C 1017.2 hPa Calm     72 % 0.0 mm
05:22 15.8 °C 11.0 °C 1017.2 hPa Calm     73 % 0.0 mm
05:27 15.8 °C 11.0 °C 1017.2 hPa Calm     73 % 0.0 mm
05:32 15.6 °C 10.1 °C 1017.2 hPa Calm     70 % 0.0 mm
05:42 15.4 °C 10.6 °C 1016.8 hPa Calm     73 % 0.0 mm
05:47 15.2 °C 10.4 °C 1016.8 hPa Calm     73 % 0.0 mm
05:52 15.1 °C 10.3 °C 1017.2 hPa Calm     73 % 0.0 mm
06:02 15.2 °C 10.4 °C 1017.2 hPa Calm     73 % 0.0 mm
06:12 15.1 °C 10.9 °C 1017.2 hPa Calm     76 % 0.0 mm
06:17 15.0 °C 10.8 °C 1017.2 hPa Calm     76 % 0.0 mm
06:22 15.0 °C 10.8 °C 1017.2 hPa Calm     76 % 0.0 mm
06:32 15.1 °C 11.5 °C 1017.2 hPa Calm     79 % 0.0 mm
06:42 15.2 °C 11.0 °C 1017.2 hPa Calm     76 % 0.0 mm
06:47 15.1 °C 11.1 °C 1017.2 hPa Calm     77 % 0.0 mm
06:52 14.9 °C 10.9 °C 1017.2 hPa Calm     77 % 0.0 mm
07:02 14.7 °C 10.5 °C 1017.2 hPa Calm     76 % 0.0 mm
07:12 14.6 °C 10.4 °C 1017.5 hPa Calm     76 % 0.0 mm
07:17 14.6 °C 10.6 °C 1017.5 hPa Calm     77 % 0.0 mm
07:22 14.6 °C 10.4 °C 1017.5 hPa Calm     76 % 0.0 mm
07:27 14.5 °C 10.3 °C 1017.5 hPa Calm     76 % 0.0 mm
07:37 14.4 °C 10.2 °C 1017.5 hPa Calm     76 % 0.0 mm
07:42 14.3 °C 10.1 °C 1017.5 hPa Calm     76 % 0.0 mm
07:47 14.2 °C 10.0 °C 1017.8 hPa Calm     76 % 0.0 mm
07:52 14.2 °C 10.0 °C 1017.8 hPa Calm     76 % 0.0 mm
07:57 14.2 °C 10.2 °C 1017.8 hPa Calm     77 % 0.0 mm
08:02 14.2 °C 10.2 °C 1017.8 hPa Calm     77 % 0.0 mm
08:12 14.3 °C 10.1 °C 1017.8 hPa Calm     76 % 0.0 mm
08:22 14.6 °C 10.6 °C 1017.8 hPa Calm     77 % 0.0 mm
08:32 14.9 °C 10.7 °C 1017.8 hPa Calm     76 % 0.0 mm
08:37 14.9 °C 10.3 °C 1017.8 hPa Calm     74 % 0.0 mm
08:42 15.1 °C 10.7 °C 1017.8 hPa Calm     75 % 0.0 mm
08:47 15.4 °C 11.0 °C 1017.8 hPa Calm     75 % 0.0 mm
08:52 16.0 °C 11.2 °C 1017.8 hPa Calm     73 % 0.0 mm
08:57 16.3 °C 11.2 °C 1017.8 hPa Calm     72 % 0.0 mm
09:02 16.4 °C 11.3 °C 1018.2 hPa Calm     72 % 0.0 mm
09:12 17.2 °C 11.7 °C 1018.2 hPa Calm     70 % 0.0 mm
09:17 17.4 °C 11.9 °C 1018.2 hPa Calm     70 % 0.0 mm
09:27 19.1 °C 12.8 °C 1018.2 hPa Calm     67 % 0.0 mm
09:32 19.6 °C 12.8 °C 1018.2 hPa Calm     65 % 0.0 mm
09:37 19.7 °C 12.7 °C 1018.2 hPa Calm     64 % 0.0 mm
09:42 19.6 °C 12.8 °C 1018.5 hPa Calm     65 % 0.0 mm
09:47 19.6 °C 12.8 °C 1018.5 hPa Calm     65 % 0.0 mm
09:57 19.9 °C 13.1 °C 1018.5 hPa Calm     65 % 0.0 mm
10:02 20.2 °C 13.2 °C 1018.5 hPa Calm     64 % 0.0 mm
10:07 20.4 °C 13.1 °C 1018.5 hPa Calm     63 % 0.0 mm
10:12 20.4 °C 13.4 °C 1018.5 hPa Calm     64 % 0.0 mm
10:17 20.8 °C 13.7 °C 1018.5 hPa Calm   3.2 km/h 64 % 0.0 mm
10:22 21.1 °C 13.8 °C 1018.5 hPa SW 4.8 km/h 4.8 km/h 63 % 0.0 mm
10:27 21.3 °C 14.0 °C 1018.5 hPa SW 1.6 km/h 4.8 km/h 63 % 0.0 mm
10:32 21.7 °C 14.1 °C 1018.5 hPa SW 6.4 km/h 6.4 km/h 62 % 0.0 mm
10:37 21.9 °C 14.5 °C 1018.5 hPa Calm   8.0 km/h 63 % 0.0 mm
10:42 22.4 °C 14.8 °C 1018.5 hPa Calm   8.0 km/h 62 % 0.0 mm
10:47 22.7 °C 14.5 °C 1018.5 hPa SSW 3.2 km/h 8.0 km/h 60 % 0.0 mm
10:52 22.3 °C 14.7 °C 1018.5 hPa Calm   6.4 km/h 62 % 0.0 mm
10:57 22.2 °C 14.6 °C 1018.5 hPa SW 1.6 km/h 6.4 km/h 62 % 0.0 mm
11:02 22.3 °C 14.7 °C 1018.5 hPa Calm   6.4 km/h 62 % 0.0 mm
11:07 22.6 °C 14.7 °C 1018.5 hPa Calm   6.4 km/h 61 % 0.0 mm
11:12 22.7 °C 14.5 °C 1018.5 hPa SE 3.2 km/h 8.0 km/h 60 % 0.0 mm
11:17 23.2 °C 15.0 °C 1018.5 hPa SW 4.8 km/h 8.0 km/h 60 % 0.0 mm
11:22 23.6 °C 14.9 °C 1018.5 hPa SE 8.0 km/h 8.0 km/h 58 % 0.0 mm
11:32 23.6 °C 14.6 °C 1018.2 hPa WSW 3.2 km/h 12.9 km/h 57 % 0.0 mm
11:37 23.3 °C 14.3 °C 1018.2 hPa Calm   12.9 km/h 57 % 0.0 mm
11:42 23.6 °C 14.3 °C 1018.2 hPa SSE 3.2 km/h 12.9 km/h 56 % 0.0 mm
11:47 24.1 °C 14.5 °C 1018.2 hPa SE 4.8 km/h 11.3 km/h 55 % 0.0 mm
11:52 23.9 °C 14.3 °C 1017.8 hPa SSW 8.0 km/h 12.9 km/h 55 % 0.0 mm
11:57 24.1 °C 14.5 °C 1017.8 hPa SSW 6.4 km/h 12.9 km/h 55 % 0.0 mm
12:02 24.2 °C 14.6 °C 1017.8 hPa SSE 1.6 km/h 14.5 km/h 55 % 0.0 mm
12:07 24.4 °C 14.2 °C 1017.8 hPa SSW 6.4 km/h 14.5 km/h 53 % 0.0 mm
12:12 24.4 °C 14.2 °C 1017.8 hPa SW 8.0 km/h 17.7 km/h 53 % 0.0 mm
12:17 24.3 °C 14.1 °C 1017.8 hPa SSW 14.5 km/h 17.7 km/h 53 % 0.0 mm
12:22 24.1 °C 14.2 °C 1017.8 hPa SW 11.3 km/h 17.7 km/h 54 % 0.0 mm
12:27 24.7 °C 14.2 °C 1017.8 hPa WSW 4.8 km/h 16.1 km/h 52 % 0.0 mm
12:32 25.2 °C 14.3 °C 1017.8 hPa East 4.8 km/h 16.1 km/h 51 % 0.0 mm
12:37 25.2 °C 14.3 °C 1017.8 hPa SW 9.7 km/h 12.9 km/h 51 % 0.0 mm
12:42 25.1 °C 14.3 °C 1017.8 hPa SW 12.9 km/h 16.1 km/h 51 % 0.0 mm
12:52 24.4 °C 14.2 °C 1017.8 hPa South 4.8 km/h 16.1 km/h 53 % 0.0 mm
12:57 24.6 °C 14.4 °C 1017.8 hPa WSW 6.4 km/h 16.1 km/h 53 % 0.0 mm
13:02 24.4 °C 14.2 °C 1017.8 hPa SSW 4.8 km/h 12.9 km/h 53 % 0.0 mm
13:07 24.4 °C 14.2 °C 1017.8 hPa SW 12.9 km/h 12.9 km/h 53 % 0.0 mm
13:12 24.1 °C 14.2 °C 1017.8 hPa WSW 6.4 km/h 12.9 km/h 54 % 0.0 mm
13:17 24.0 °C 14.1 °C 1017.8 hPa SW 8.0 km/h 14.5 km/h 54 % 0.0 mm
13:22 23.8 °C 14.2 °C 1017.8 hPa South 3.2 km/h 14.5 km/h 55 % 0.0 mm
13:27 23.8 °C 14.5 °C 1017.5 hPa SSE 6.4 km/h 14.5 km/h 56 % 0.0 mm
13:32 23.9 °C 14.6 °C 1017.5 hPa South 6.4 km/h 14.5 km/h 56 % 0.0 mm
13:37 23.7 °C 14.4 °C 1017.5 hPa SSW 3.2 km/h 14.5 km/h 56 % 0.0 mm
13:42 23.6 °C 14.9 °C 1017.5 hPa SSW 3.2 km/h 12.9 km/h 58 % 0.0 mm
13:47 23.4 °C 14.9 °C 1017.5 hPa WSW 4.8 km/h 12.9 km/h 59 % 0.0 mm
13:52 23.4 °C 15.2 °C 1017.5 hPa Calm   8.0 km/h 60 % 0.0 mm
13:57 23.6 °C 14.9 °C 1017.5 hPa Calm   8.0 km/h 58 % 0.0 mm
14:02 23.8 °C 15.3 °C 1017.5 hPa Calm   6.4 km/h 59 % 0.0 mm
14:12 24.3 °C 14.7 °C 1017.2 hPa Calm   8.0 km/h 55 % 0.0 mm
14:17 24.7 °C 15.1 °C 1017.2 hPa East 3.2 km/h 8.0 km/h 55 % 0.0 mm
14:22 24.9 °C 15.2 °C 1017.2 hPa Calm   8.0 km/h 55 % 0.0 mm
14:27 25.2 °C 14.6 °C 1017.2 hPa Calm   6.4 km/h 52 % 0.0 mm
14:32 25.5 °C 14.9 °C 1017.2 hPa WNW 1.6 km/h 6.4 km/h 52 % 0.0 mm
14:37 25.6 °C 14.7 °C 1016.8 hPa Calm   6.4 km/h 51 % 0.0 mm
14:42 26.1 °C 14.9 °C 1016.8 hPa ESE 1.6 km/h 6.4 km/h 50 % 0.0 mm
14:47 26.3 °C 14.7 °C 1016.8 hPa SE 4.8 km/h 6.4 km/h 49 % 0.0 mm
14:52 25.9 °C 14.7 °C 1016.8 hPa NNW 4.8 km/h 9.7 km/h 50 % 0.0 mm
14:57 25.9 °C 14.7 °C 1016.8 hPa SSE 3.2 km/h 9.7 km/h 50 % 0.0 mm
15:02 26.2 °C 15.0 °C 1016.8 hPa East 1.6 km/h 9.7 km/h 50 % 0.0 mm
15:07 26.6 °C 15.0 °C 1016.5 hPa WSW 8.0 km/h 8.0 km/h 49 % 0.0 mm
15:12 26.3 °C 14.7 °C 1016.5 hPa WSW 1.6 km/h 9.7 km/h 49 % 0.0 mm
15:17 26.4 °C 14.8 °C 1016.5 hPa West 3.2 km/h 9.7 km/h 49 % 0.0 mm
15:22 26.6 °C 14.7 °C 1016.5 hPa Calm   9.7 km/h 48 % 0.0 mm
15:27 27.1 °C 14.1 °C 1016.5 hPa SSE 1.6 km/h 8.0 km/h 45 % 0.0 mm
15:32 27.3 °C 14.0 °C 1016.5 hPa East 3.2 km/h 6.4 km/h 44 % 0.0 mm
15:37 27.5 °C 13.4 °C 1016.5 hPa South 8.0 km/h 8.0 km/h 42 % 0.0 mm
15:42 27.3 °C 13.6 °C 1016.1 hPa SSW 3.2 km/h 9.7 km/h 43 % 0.0 mm
15:47 27.3 °C 13.6 °C 1016.1 hPa ESE 6.4 km/h 9.7 km/h 43 % 0.0 mm
15:52 27.1 °C 13.4 °C 1016.1 hPa WSW 4.8 km/h 12.9 km/h 43 % 0.0 mm
16:02 27.1 °C 13.4 °C 1016.1 hPa NE 4.8 km/h 12.9 km/h 43 % 0.0 mm
16:07 27.1 °C 13.4 °C 1016.1 hPa West 1.6 km/h 12.9 km/h 43 % 0.0 mm
16:12 27.4 °C 13.4 °C 1016.1 hPa WNW 4.8 km/h 12.9 km/h 42 % 0.0 mm
16:17 27.2 °C 13.5 °C 1016.1 hPa WSW 11.3 km/h 11.3 km/h 43 % 0.0 mm
16:27 27.3 °C 14.0 °C 1016.1 hPa SW 1.6 km/h 11.3 km/h 44 % 0.0 mm
16:32 27.6 °C 13.9 °C 1016.1 hPa SE 8.0 km/h 11.3 km/h 43 % 0.0 mm
16:37 27.5 °C 13.4 °C 1016.1 hPa SW 3.2 km/h 9.7 km/h 42 % 0.0 mm
16:52 27.2 °C 13.2 °C 1015.8 hPa ESE 1.6 km/h 6.4 km/h 42 % 0.0 mm
16:57 27.1 °C 13.4 °C 1015.8 hPa Calm   6.4 km/h 43 % 0.0 mm
17:02 27.2 °C 13.2 °C 1015.8 hPa Calm   6.4 km/h 42 % 0.0 mm
17:07 27.3 °C 13.3 °C 1015.8 hPa SW 8.0 km/h 8.0 km/h 42 % 0.0 mm
17:12 27.2 °C 13.2 °C 1015.8 hPa SW 4.8 km/h 9.7 km/h 42 % 0.0 mm
17:17 27.2 °C 13.2 °C 1015.8 hPa Calm   9.7 km/h 42 % 0.0 mm
17:22 27.4 °C 13.4 °C 1015.5 hPa Calm   9.7 km/h 42 % 0.0 mm
17:27 27.8 °C 13.3 °C 1015.5 hPa WSW 4.8 km/h 6.4 km/h 41 % 0.0 mm
17:32 27.9 °C 13.1 °C 1015.5 hPa SW 3.2 km/h 6.4 km/h 40 % 0.0 mm
17:42 28.6 °C 12.9 °C 1015.5 hPa SSW 1.6 km/h 4.8 km/h 38 % 0.0 mm
17:47 28.7 °C 12.6 °C 1015.5 hPa East 3.2 km/h 8.0 km/h 37 % 0.0 mm
17:52 28.3 °C 12.6 °C 1015.5 hPa Calm   8.0 km/h 38 % 0.0 mm
17:57 28.4 °C 12.3 °C 1015.5 hPa SW 1.6 km/h 8.0 km/h 37 % 0.0 mm
18:02 28.1 °C 12.4 °C 1015.5 hPa West 1.6 km/h 8.0 km/h 38 % 0.0 mm
18:07 27.8 °C 12.6 °C 1015.5 hPa Calm   8.0 km/h 39 % 0.0 mm
18:12 27.6 °C 12.4 °C 1015.5 hPa NW 1.6 km/h 8.0 km/h 39 % 0.0 mm
18:17 27.9 °C 13.1 °C 1015.5 hPa SW 8.0 km/h 8.0 km/h 40 % 0.0 mm
18:22 27.9 °C 13.1 °C 1015.5 hPa SE 1.6 km/h 8.0 km/h 40 % 0.0 mm
18:32 27.9 °C 12.7 °C 1015.5 hPa SSW 1.6 km/h 8.0 km/h 39 % 0.0 mm
18:37 27.9 °C 12.7 °C 1015.5 hPa WSW 1.6 km/h 6.4 km/h 39 % 0.0 mm
18:42 27.8 °C 12.6 °C 1015.5 hPa Calm   6.4 km/h 39 % 0.0 mm
18:47 27.4 °C 12.6 °C 1015.5 hPa SW 3.2 km/h 4.8 km/h 40 % 0.0 mm
18:52 27.1 °C 12.3 °C 1015.5 hPa SW 1.6 km/h 6.4 km/h 40 % 0.0 mm
18:57 26.9 °C 12.5 °C 1015.5 hPa Calm   6.4 km/h 41 % 0.0 mm
19:02 26.8 °C 12.4 °C 1015.5 hPa Calm   6.4 km/h 41 % 0.0 mm
19:07 26.7 °C 12.4 °C 1015.5 hPa Calm   3.2 km/h 41 % 0.0 mm
19:12 26.6 °C 12.6 °C 1015.5 hPa Calm   1.6 km/h 42 % 0.0 mm
19:17 26.4 °C 12.8 °C 1015.5 hPa Calm   1.6 km/h 43 % 0.0 mm
19:27 25.8 °C 13.0 °C 1015.5 hPa Calm     45 % 0.0 mm
19:32 25.7 °C 12.9 °C 1015.5 hPa Calm     45 % 0.0 mm
19:37 25.6 °C 13.1 °C 1015.5 hPa Calm     46 % 0.0 mm
19:42 25.4 °C 12.9 °C 1015.5 hPa Calm     46 % 0.0 mm
19:47 25.3 °C 13.2 °C 1015.5 hPa Calm     47 % 0.0 mm
19:52 25.1 °C 13.0 °C 1015.5 hPa Calm     47 % 0.0 mm
19:57 24.9 °C 12.8 °C 1015.5 hPa Calm     47 % 0.0 mm
20:02 24.8 °C 13.0 °C 1015.5 hPa Calm     48 % 0.0 mm
20:07 24.8 °C 13.0 °C 1015.5 hPa Calm     48 % 0.0 mm
20:12 24.6 °C 13.2 °C 1015.5 hPa Calm     49 % 0.0 mm
20:17 24.1 °C 13.0 °C 1015.5 hPa Calm   4.8 km/h 50 % 0.0 mm
20:27 23.6 °C 13.2 °C 1015.5 hPa Calm   4.8 km/h 52 % 0.0 mm
20:32 23.4 °C 13.0 °C 1015.5 hPa Calm   3.2 km/h 52 % 0.0 mm
20:37 23.2 °C 13.1 °C 1015.5 hPa Calm   3.2 km/h 53 % 0.0 mm
20:42 23.1 °C 13.3 °C 1015.5 hPa Calm   3.2 km/h 54 % 0.0 mm
20:52 23.0 °C 13.2 °C 1015.5 hPa NNW 1.6 km/h 1.6 km/h 54 % 0.0 mm
20:57 22.9 °C 13.1 °C 1015.5 hPa Calm   1.6 km/h 54 % 0.0 mm
21:02 22.8 °C 13.0 °C 1015.5 hPa Calm   1.6 km/h 54 % 0.0 mm
21:07 22.7 °C 12.9 °C 1015.5 hPa Calm   1.6 km/h 54 % 0.0 mm
21:17 22.4 °C 12.9 °C 1015.5 hPa Calm   1.6 km/h 55 % 0.0 mm
21:22 22.3 °C 12.8 °C 1015.5 hPa Calm   1.6 km/h 55 % 0.0 mm
21:32 21.9 °C 12.7 °C 1015.8 hPa Calm     56 % 0.0 mm
21:37 21.4 °C 12.0 °C 1015.8 hPa Calm     55 % 0.0 mm
21:42 21.0 °C 12.4 °C 1015.8 hPa Calm     58 % 0.0 mm
21:47 20.8 °C 12.5 °C 1015.8 hPa Calm     59 % 0.0 mm
21:52 20.5 °C 12.5 °C 1015.8 hPa Calm     60 % 0.0 mm
21:57 20.4 °C 12.9 °C 1015.8 hPa Calm     62 % 0.0 mm
22:02 20.3 °C 12.8 °C 1015.8 hPa Calm     62 % 0.0 mm
22:07 20.5 °C 12.5 °C 1016.1 hPa Calm     60 % 0.0 mm
22:12 20.6 °C 12.6 °C 1016.1 hPa Calm     60 % 0.0 mm
22:17 20.4 °C 12.6 °C 1016.1 hPa Calm     61 % 0.0 mm
22:22 20.2 °C 12.9 °C 1016.1 hPa Calm     63 % 0.0 mm
22:27 19.9 °C 12.6 °C 1016.1 hPa Calm     63 % 0.0 mm
22:32 19.8 °C 12.6 °C 1016.1 hPa Calm     63 % 0.0 mm
22:37 20.2 °C 12.7 °C 1016.1 hPa Calm     62 % 0.0 mm
22:42 20.4 °C 12.6 °C 1016.1 hPa Calm     61 % 0.0 mm
22:47 20.3 °C 12.5 °C 1016.1 hPa Calm     61 % 0.0 mm
22:52 20.3 °C 12.5 °C 1016.1 hPa Calm     61 % 0.0 mm
22:57 20.3 °C 12.5 °C 1016.1 hPa Calm     61 % 0.0 mm
23:02 20.2 °C 12.4 °C 1016.1 hPa Calm     61 % 0.0 mm
23:07 20.2 °C 12.7 °C 1016.1 hPa Calm     62 % 0.0 mm
23:12 20.2 °C 12.7 °C 1016.1 hPa Calm     62 % 0.0 mm
23:17 20.1 °C 12.6 °C 1016.1 hPa Calm     62 % 0.0 mm
23:22 20.2 °C 12.4 °C 1016.1 hPa Calm     61 % 0.0 mm
23:32 20.2 °C 12.4 °C 1016.1 hPa Calm     61 % 0.0 mm
23:37 20.1 °C 12.6 °C 1016.1 hPa Calm     62 % 0.0 mm
23:42 20.1 °C 12.8 °C 1016.1 hPa Calm     63 % 0.0 mm
23:47 20.1 °C 13.1 °C 1016.1 hPa Calm     64 % 0.0 mm
23:52 20.1 °C 13.1 °C 1016.1 hPa Calm     64 % 0.0 mm
23:57 20.0 °C 13.2 °C 1016.1 hPa Calm     65 % 0.0 mm
Meteo18
Compliments of Weather Underground - 4 mb

Script developed by  Jim McMurry - jmcmurry@mwt.net Adapted for the template by  Wim van der Kuil - Leuven-Template.eu

You find our weather info also at:

European Weather Network

Weather Underground

Equipment we use:

Weather-station
Davis Vue

Weather-program
Meteohub

Weather-server
Raspberry PI 2 B+

Provider
1 and 1

Davis Vue

Meteohub

Raspberry PI 2 B+

1 and 1